createdAt,value
2023-05-08T00:00:00.438Z,8.56
2023-05-08T00:02:27.267Z,8.55
2023-05-08T00:04:54.221Z,8.56
2023-05-08T00:07:20.976Z,8.57
2023-05-08T00:09:47.723Z,8.56
2023-05-08T00:12:14.444Z,8.56
2023-05-08T00:14:41.189Z,8.53
2023-05-08T00:17:08.098Z,8.52
2023-05-08T00:19:34.823Z,8.52
2023-05-08T00:22:01.535Z,8.51
2023-05-08T00:24:28.303Z,8.49
2023-05-08T00:26:54.959Z,8.47
2023-05-08T00:29:21.640Z,8.46
2023-05-08T00:31:48.581Z,8.46
2023-05-08T00:34:15.372Z,8.46
2023-05-08T00:36:42.043Z,8.45
2023-05-08T00:39:08.681Z,8.45
2023-05-08T00:41:35.479Z,8.45
2023-05-08T00:44:02.604Z,8.43
2023-05-08T00:46:29.351Z,8.42
2023-05-08T00:48:56.013Z,8.40
2023-05-08T00:51:23.462Z,8.37
2023-05-08T00:53:50.063Z,8.34
2023-05-08T00:56:17.055Z,8.33
2023-05-08T00:58:43.867Z,8.33
2023-05-08T01:01:10.905Z,8.34
2023-05-08T01:03:38.008Z,8.35
2023-05-08T01:06:05.201Z,8.35
2023-05-08T01:08:32.064Z,8.33
2023-05-08T01:11:16.166Z,8.32
2023-05-08T01:13:58.104Z,8.30
2023-05-08T01:16:46.968Z,8.30
2023-05-08T01:19:51.539Z,8.32
2023-05-08T01:22:43.404Z,8.34
2023-05-08T01:25:30.145Z,8.33
2023-05-08T01:28:24.090Z,8.34
2023-05-08T01:30:56.957Z,8.33
2023-05-08T01:33:46.099Z,8.32
2023-05-08T01:36:17.556Z,8.31
2023-05-08T01:38:54.108Z,8.29
2023-05-08T01:41:26.194Z,8.30
2023-05-08T01:44:18.337Z,8.28
2023-05-08T01:46:46.888Z,8.27
2023-05-08T01:49:23.529Z,8.26
2023-05-08T01:51:56.987Z,8.22
2023-05-08T01:54:25.434Z,8.19
2023-05-08T01:56:53.224Z,8.16
2023-05-08T01:59:21.267Z,8.14
2023-05-08T02:01:48.494Z,8.12
2023-05-08T02:04:15.611Z,8.09
2023-05-08T02:06:42.492Z,8.08
2023-05-08T02:09:09.782Z,8.08
2023-05-08T02:13:10.557Z,8.10
2023-05-08T02:15:38.131Z,8.08
2023-05-08T02:18:07.873Z,8.07
2023-05-08T02:20:34.740Z,8.06
2023-05-08T02:23:01.610Z,8.03
2023-05-08T02:25:28.367Z,8.01
2023-05-08T02:27:55.112Z,8.00
2023-05-08T02:30:22.096Z,7.98
2023-05-08T02:32:48.926Z,7.99
2023-05-08T02:35:17.286Z,7.98
2023-05-08T02:37:45.358Z,7.97
2023-05-08T02:40:12.409Z,7.96
2023-05-08T02:42:39.339Z,7.93
2023-05-08T02:45:06.934Z,7.92
2023-05-08T02:47:38.179Z,7.92
2023-05-08T02:50:36.652Z,7.90
2023-05-08T02:53:05.368Z,7.89
2023-05-08T02:55:53.857Z,7.90
2023-05-08T02:58:24.570Z,7.91
2023-05-08T03:00:58.908Z,7.92
2023-05-08T03:03:27.617Z,7.94
2023-05-08T03:05:55.696Z,7.95
2023-05-08T03:08:30.689Z,7.97
2023-05-08T03:10:59.226Z,7.97
2023-05-08T03:13:28.304Z,7.94
2023-05-08T03:15:57.232Z,7.92
2023-05-08T03:18:28.707Z,7.90
2023-05-08T03:20:56.349Z,7.91
2023-05-08T03:23:23.683Z,7.93
2023-05-08T03:25:50.436Z,7.95
2023-05-08T03:28:17.319Z,7.97
2023-05-08T03:30:44.138Z,7.98
2023-05-08T03:33:13.385Z,7.98
2023-05-08T03:35:40.096Z,7.95
2023-05-08T03:38:08.243Z,7.95
2023-05-08T03:40:38.615Z,7.96
2023-05-08T03:43:08.709Z,7.95
2023-05-08T03:45:36.996Z,7.96
2023-05-08T03:48:05.544Z,7.97
2023-05-08T03:50:35.578Z,8.00
2023-05-08T03:53:02.608Z,8.03
2023-05-08T03:55:30.826Z,8.06
2023-05-08T03:58:08.897Z,8.07
2023-05-08T04:00:58.115Z,8.09
2023-05-08T04:03:41.368Z,8.10
2023-05-08T04:06:14.522Z,8.13
2023-05-08T04:08:55.618Z,8.15
2023-05-08T04:11:30.423Z,8.18
2023-05-08T04:14:03.572Z,8.21
2023-05-08T04:16:32.356Z,8.22
2023-05-08T04:19:02.201Z,8.23
2023-05-08T04:21:29.519Z,8.27
2023-05-08T04:23:56.424Z,8.31
2023-05-08T04:26:23.284Z,8.36
2023-05-08T04:28:50.707Z,8.40
2023-05-08T04:31:18.196Z,8.41
2023-05-08T04:33:45.022Z,8.42
2023-05-08T04:36:13.569Z,8.43
2023-05-08T04:38:41.175Z,8.44
2023-05-08T04:41:08.515Z,8.45
2023-05-08T04:43:36.065Z,8.49
2023-05-08T04:46:03.257Z,8.51
2023-05-08T04:48:33.140Z,8.55
2023-05-08T04:51:00.334Z,8.59
2023-05-08T04:53:27.317Z,8.61
2023-05-08T04:55:54.036Z,8.60
2023-05-08T04:58:20.744Z,8.60
2023-05-08T05:00:47.508Z,8.63
2023-05-08T05:03:14.319Z,8.63
2023-05-08T05:05:41.247Z,8.66
2023-05-08T05:08:08.049Z,8.71
2023-05-08T05:10:34.846Z,8.75
2023-05-08T05:13:01.649Z,8.80
2023-05-08T05:15:28.516Z,8.85
2023-05-08T05:17:55.412Z,8.91
2023-05-08T05:20:22.400Z,8.96
2023-05-08T05:22:49.458Z,8.99
2023-05-08T05:25:16.288Z,9.00
2023-05-08T05:27:43.284Z,9.06
2023-05-08T05:30:10.942Z,9.12
2023-05-08T05:32:37.956Z,9.18
2023-05-08T05:35:05.356Z,9.20
2023-05-08T05:37:32.318Z,9.20
2023-05-08T05:39:59.039Z,9.20
2023-05-08T05:42:26.015Z,9.23
2023-05-08T05:44:53.866Z,9.21
2023-05-08T05:47:20.673Z,9.19
2023-05-08T05:49:47.408Z,9.22
2023-05-08T05:52:15.068Z,9.21
2023-05-08T05:54:42.734Z,9.18
2023-05-08T05:57:09.632Z,9.18
2023-05-08T05:59:36.374Z,9.15
2023-05-08T06:02:03.736Z,9.16
2023-05-08T06:04:30.675Z,9.19
2023-05-08T06:06:57.428Z,9.26
2023-05-08T06:09:24.108Z,9.34
2023-05-08T06:11:51.525Z,9.43
2023-05-08T06:14:18.431Z,9.52
2023-05-08T06:16:45.435Z,9.61
2023-05-08T06:19:12.192Z,9.68
2023-05-08T06:21:39.889Z,9.71
2023-05-08T06:24:07.838Z,9.75
2023-05-08T06:26:34.600Z,9.83
2023-05-08T06:29:01.444Z,9.86
2023-05-08T06:31:28.190Z,9.86
2023-05-08T06:33:55.031Z,9.82
2023-05-08T06:36:21.741Z,9.85
2023-05-08T06:38:48.431Z,9.94
2023-05-08T06:41:15.515Z,10.06
2023-05-08T06:43:42.235Z,10.18
2023-05-08T06:46:09.041Z,10.31
2023-05-08T06:48:35.783Z,10.45
2023-05-08T06:51:02.712Z,10.57
2023-05-08T06:53:29.367Z,10.67
2023-05-08T06:55:57.948Z,10.76
2023-05-08T06:58:24.780Z,10.85
2023-05-08T07:00:51.413Z,10.94
2023-05-08T07:03:18.085Z,10.93
2023-05-08T07:05:44.808Z,10.96
2023-05-08T07:08:11.466Z,11.02
2023-05-08T07:10:38.186Z,11.11
2023-05-08T07:13:04.967Z,11.20
2023-05-08T07:15:32.301Z,11.26
2023-05-08T07:17:58.994Z,11.26
2023-05-08T07:20:25.925Z,11.28
2023-05-08T07:22:52.760Z,11.33
2023-05-08T07:25:19.447Z,11.37
2023-05-08T07:27:46.228Z,11.42
2023-05-08T07:30:13.203Z,11.46
2023-05-08T07:32:40.192Z,11.49
2023-05-08T07:35:11.139Z,11.50
2023-05-08T07:37:39.466Z,11.54
2023-05-08T07:40:08.981Z,11.59
2023-05-08T07:42:40.461Z,11.65
2023-05-08T07:45:08.990Z,11.72
2023-05-08T07:47:35.710Z,11.76
2023-05-08T07:50:02.523Z,11.76
2023-05-08T07:52:29.241Z,11.81
2023-05-08T07:54:55.981Z,11.81
2023-05-08T07:57:22.656Z,11.80
2023-05-08T07:59:49.284Z,11.82
2023-05-08T08:02:16.145Z,11.88
2023-05-08T08:04:42.870Z,11.92
2023-05-08T08:07:09.527Z,11.97
2023-05-08T08:09:36.157Z,12.03
2023-05-08T08:12:03.329Z,12.03
2023-05-08T08:14:30.069Z,12.02
2023-05-08T08:16:56.803Z,12.08
2023-05-08T08:19:23.922Z,12.16
2023-05-08T08:21:51.102Z,12.25
2023-05-08T08:24:18.269Z,12.37
2023-05-08T08:26:44.974Z,12.49
2023-05-08T08:29:11.618Z,12.57
2023-05-08T08:31:38.616Z,12.66
2023-05-08T08:34:05.415Z,12.75
2023-05-08T08:36:32.799Z,12.80
2023-05-08T08:38:59.525Z,12.84
2023-05-08T08:41:28.079Z,12.84
2023-05-08T08:43:55.440Z,12.79
2023-05-08T08:46:28.107Z,12.68
2023-05-08T08:48:56.586Z,12.60
2023-05-08T08:51:31.890Z,12.58
2023-05-08T08:54:14.137Z,12.58
2023-05-08T08:56:44.322Z,12.46
2023-05-08T08:59:12.548Z,12.35
2023-05-08T09:01:39.875Z,12.30
2023-05-08T09:04:07.382Z,12.31
2023-05-08T09:06:35.998Z,12.32
2023-05-08T09:09:02.674Z,12.32
2023-05-08T09:11:29.426Z,12.33
2023-05-08T09:13:56.149Z,12.36
2023-05-08T09:16:23.724Z,12.44
2023-05-08T09:18:50.483Z,12.56
2023-05-08T09:21:17.251Z,12.67
2023-05-08T09:24:00.969Z,12.74
2023-05-08T09:26:35.195Z,12.73
2023-05-08T09:29:18.236Z,12.74
2023-05-08T09:31:46.614Z,12.75
2023-05-08T09:34:28.145Z,12.76
2023-05-08T09:37:14.160Z,12.78
2023-05-08T09:39:42.111Z,12.80
2023-05-08T09:42:08.972Z,12.83
2023-05-08T09:44:51.833Z,12.89
2023-05-08T09:47:23.056Z,12.98
2023-05-08T09:50:04.489Z,13.02
2023-05-08T09:52:31.767Z,13.03
2023-05-08T09:55:05.168Z,12.99
2023-05-08T09:57:33.178Z,12.98
2023-05-08T10:00:10.194Z,13.01
2023-05-08T10:02:38.633Z,13.00
2023-05-08T10:05:22.949Z,13.04
2023-05-08T10:07:49.810Z,13.13
2023-05-08T10:10:22.217Z,13.22
2023-05-08T10:12:48.998Z,13.30
2023-05-08T10:15:15.654Z,13.39
2023-05-08T10:17:58.123Z,13.48
2023-05-08T10:20:25.621Z,13.54
2023-05-08T10:22:52.276Z,13.53
2023-05-08T10:25:20.078Z,13.51
2023-05-08T10:27:58.069Z,13.50
2023-05-08T10:30:26.043Z,13.44
2023-05-08T10:32:56.329Z,13.36
2023-05-08T10:35:23.406Z,13.29
2023-05-08T10:37:50.168Z,13.26
2023-05-08T10:40:16.944Z,13.20
2023-05-08T10:42:43.722Z,13.17
2023-05-08T10:45:11.436Z,13.19
2023-05-08T10:48:00.344Z,13.24
2023-05-08T10:50:56.574Z,13.33
2023-05-08T10:53:37.819Z,13.37
2023-05-08T10:56:04.480Z,13.35
2023-05-08T10:58:32.749Z,13.29
2023-05-08T11:01:08.717Z,13.18
2023-05-08T11:03:46.152Z,13.04
2023-05-08T11:06:13.344Z,12.96
2023-05-08T11:08:46.668Z,12.90
2023-05-08T11:11:17.529Z,12.83
2023-05-08T11:13:50.298Z,12.80
2023-05-08T11:16:17.112Z,12.81
2023-05-08T11:19:18.809Z,12.80
2023-05-08T11:22:11.925Z,12.83
2023-05-08T11:24:59.466Z,12.87
2023-05-08T11:27:33.861Z,12.86
2023-05-08T11:30:23.172Z,12.86
2023-05-08T11:33:05.341Z,12.88
2023-05-08T11:35:57.570Z,12.94
2023-05-08T11:38:33.429Z,12.93
2023-05-08T11:41:27.661Z,12.92
2023-05-08T11:44:09.398Z,12.97
2023-05-08T11:46:58.341Z,13.04
2023-05-08T11:49:29.046Z,13.12
2023-05-08T11:51:58.303Z,13.13
2023-05-08T11:54:25.611Z,13.11
2023-05-08T11:56:57.227Z,13.10
2023-05-08T11:59:23.920Z,13.13
2023-05-08T12:02:06.882Z,13.18
2023-05-08T12:04:43.579Z,13.22
2023-05-08T12:07:10.389Z,13.27
2023-05-08T12:09:38.366Z,13.33
2023-05-08T12:12:05.231Z,13.38
2023-05-08T12:14:31.960Z,13.43
2023-05-08T12:16:58.927Z,13.45
2023-05-08T12:19:25.611Z,13.45
2023-05-08T12:21:52.290Z,13.46
2023-05-08T12:24:23.071Z,13.43
2023-05-08T12:26:50.691Z,13.36
2023-05-08T12:29:19.403Z,13.28
2023-05-08T12:31:46.140Z,13.20
2023-05-08T12:34:12.877Z,13.12
2023-05-08T12:36:39.540Z,13.08
2023-05-08T12:39:17.120Z,13.07
2023-05-08T12:41:51.025Z,13.11
2023-05-08T12:44:22.835Z,13.14
2023-05-08T12:46:51.380Z,13.14
2023-05-08T12:49:28.891Z,13.10
2023-05-08T12:52:09.115Z,13.03
2023-05-08T12:54:37.549Z,12.99
2023-05-08T12:57:22.848Z,12.97
2023-05-08T12:59:49.576Z,12.96
2023-05-08T13:02:17.841Z,12.93
2023-05-08T13:04:45.004Z,12.90
2023-05-08T13:07:11.857Z,12.90
2023-05-08T13:09:39.206Z,12.89
2023-05-08T13:12:06.974Z,12.88
2023-05-08T13:14:33.714Z,12.87
2023-05-08T13:17:00.615Z,12.89
2023-05-08T13:19:27.743Z,12.91
2023-05-08T13:21:54.543Z,12.87
2023-05-08T13:24:21.311Z,12.83
2023-05-08T13:26:48.050Z,12.80
2023-05-08T13:29:14.832Z,12.80
2023-05-08T13:31:41.534Z,12.82
2023-05-08T13:34:08.366Z,12.81
2023-05-08T13:36:35.097Z,12.82
2023-05-08T13:39:01.716Z,12.87
2023-05-08T13:41:28.388Z,12.95
2023-05-08T13:43:55.084Z,13.02
2023-05-08T13:46:21.781Z,13.02
2023-05-08T13:48:48.540Z,12.98
2023-05-08T13:51:15.409Z,12.98
2023-05-08T13:53:42.267Z,12.99
2023-05-08T13:56:08.885Z,13.03
2023-05-08T13:58:35.557Z,13.02
2023-05-08T14:01:13.751Z,13.00
2023-05-08T14:03:44.857Z,12.94
2023-05-08T14:06:11.695Z,12.90
2023-05-08T14:08:45.092Z,12.89
2023-05-08T14:11:12.808Z,12.91
2023-05-08T14:13:39.481Z,12.92
2023-05-08T14:16:08.325Z,12.92
2023-05-08T14:18:35.093Z,12.91
2023-05-08T14:21:01.823Z,12.91
2023-05-08T14:23:28.610Z,12.92
2023-05-08T14:25:55.426Z,12.89
2023-05-08T14:30:02.220Z,12.88
2023-05-08T14:32:28.924Z,12.88
2023-05-08T14:34:55.717Z,12.90
2023-05-08T14:37:22.452Z,12.90
2023-05-08T14:39:54.039Z,12.91
2023-05-08T14:42:23.659Z,12.94
2023-05-08T14:44:51.367Z,12.96
2023-05-08T14:47:18.174Z,12.96
2023-05-08T14:49:44.853Z,12.95
2023-05-08T14:52:11.578Z,12.95
2023-05-08T14:54:38.578Z,12.95
2023-05-08T14:57:05.392Z,12.95
2023-05-08T14:59:32.362Z,12.96
2023-05-08T15:01:59.199Z,12.97
2023-05-08T15:04:26.001Z,12.96
2023-05-08T15:06:52.794Z,12.95
2023-05-08T15:09:19.528Z,12.96
2023-05-08T15:11:46.257Z,12.96
2023-05-08T15:14:12.894Z,12.96
2023-05-08T15:16:39.618Z,12.98
2023-05-08T15:19:06.366Z,12.96
2023-05-08T15:21:32.996Z,12.94
2023-05-08T15:24:00.004Z,12.94
2023-05-08T15:26:26.658Z,12.95
2023-05-08T15:28:53.316Z,12.94
2023-05-08T15:31:20.058Z,12.93
2023-05-08T15:33:47.828Z,12.91
2023-05-08T15:36:14.555Z,12.88
2023-05-08T15:38:41.615Z,12.87
2023-05-08T15:41:12.100Z,12.86
2023-05-08T15:43:40.770Z,12.86
2023-05-08T15:46:07.650Z,12.83
2023-05-08T15:48:34.432Z,12.77
2023-05-08T15:51:01.198Z,12.72
2023-05-08T15:53:27.964Z,12.68
2023-05-08T15:55:58.503Z,12.64
2023-05-08T15:58:25.189Z,12.60
2023-05-08T16:00:52.135Z,12.57
2023-05-08T16:03:19.208Z,12.51
2023-05-08T16:05:46.163Z,12.47
2023-05-08T16:08:13.742Z,12.43
2023-05-08T16:10:41.169Z,12.40
2023-05-08T16:13:08.279Z,12.37
2023-05-08T16:15:35.272Z,12.33
2023-05-08T16:18:02.969Z,12.28
2023-05-08T16:20:29.830Z,12.22
2023-05-08T16:22:56.906Z,12.17
2023-05-08T16:25:23.755Z,12.14
2023-05-08T16:27:50.562Z,12.10
2023-05-08T16:30:18.352Z,12.07
2023-05-08T16:32:46.178Z,12.05
2023-05-08T16:35:13.739Z,12.03
2023-05-08T16:37:40.784Z,12.01
2023-05-08T16:40:08.424Z,11.97
2023-05-08T16:42:35.522Z,11.91
2023-05-08T16:45:05.825Z,11.86
2023-05-08T16:47:33.251Z,11.83
2023-05-08T16:50:00.312Z,11.79
2023-05-08T16:52:27.215Z,11.76
2023-05-08T16:54:53.848Z,11.71
2023-05-08T16:57:20.647Z,11.67
2023-05-08T16:59:47.439Z,11.61
2023-05-08T17:02:18.852Z,11.55
2023-05-08T17:04:49.616Z,11.50
2023-05-08T17:07:16.806Z,11.45
2023-05-08T17:09:43.725Z,11.40
2023-05-08T17:12:10.366Z,11.35
2023-05-08T17:14:40.794Z,11.30
2023-05-08T17:17:07.733Z,11.23
2023-05-08T17:19:34.536Z,11.17
2023-05-08T17:22:01.343Z,11.10
2023-05-08T17:24:29.954Z,11.05
2023-05-08T17:26:56.677Z,10.99
2023-05-08T17:29:23.342Z,10.95
2023-05-08T17:31:50.109Z,10.89
2023-05-08T17:34:17.110Z,10.84
2023-05-08T17:36:43.974Z,10.80
2023-05-08T17:39:11.602Z,10.75
2023-05-08T17:41:38.710Z,10.71
2023-05-08T17:44:05.588Z,10.67
2023-05-08T17:46:32.326Z,10.63
2023-05-08T17:48:59.004Z,10.60
2023-05-08T17:51:25.705Z,10.56
2023-05-08T17:53:53.152Z,10.53
2023-05-08T17:56:23.242Z,10.49
2023-05-08T17:58:51.890Z,10.46
2023-05-08T18:01:19.434Z,10.41
2023-05-08T18:03:46.346Z,10.37
2023-05-08T18:06:16.916Z,10.35
2023-05-08T18:08:44.398Z,10.31
2023-05-08T18:11:17.556Z,10.28
2023-05-08T18:13:44.271Z,10.25
2023-05-08T18:16:10.967Z,10.20
2023-05-08T18:18:37.628Z,10.15
2023-05-08T18:21:04.266Z,10.12
2023-05-08T18:23:31.390Z,10.09
2023-05-08T18:25:58.186Z,10.06
2023-05-08T18:28:24.954Z,10.01
2023-05-08T18:30:51.773Z,9.98
2023-05-08T18:33:18.487Z,9.93
2023-05-08T18:35:45.212Z,9.89
2023-05-08T18:38:12.081Z,9.86
2023-05-08T18:40:38.740Z,9.84
2023-05-08T18:43:05.462Z,9.84
2023-05-08T18:45:32.117Z,9.82
2023-05-08T18:47:58.833Z,9.80
2023-05-08T18:50:25.643Z,9.76
2023-05-08T18:52:52.679Z,9.72
2023-05-08T18:55:19.398Z,9.69
2023-05-08T18:57:46.062Z,9.66
2023-05-08T19:00:16.108Z,9.62
2023-05-08T19:02:42.880Z,9.59
2023-05-08T19:05:10.877Z,9.56
2023-05-08T19:07:37.747Z,9.55
2023-05-08T19:10:05.342Z,9.52
2023-05-08T19:12:32.135Z,9.50
2023-05-08T19:14:58.796Z,9.48
2023-05-08T19:17:25.466Z,9.45
2023-05-08T19:19:52.759Z,9.43
2023-05-08T19:22:19.488Z,9.41
2023-05-08T19:24:46.189Z,9.39
2023-05-08T19:27:12.845Z,9.37
2023-05-08T19:29:39.664Z,9.34
2023-05-08T19:32:06.417Z,9.31
2023-05-08T19:34:35.015Z,9.27
2023-05-08T19:37:01.901Z,9.25
2023-05-08T19:39:28.566Z,9.22
2023-05-08T19:41:55.526Z,9.19
2023-05-08T19:44:22.159Z,9.15
2023-05-08T19:46:50.782Z,9.11
2023-05-08T19:49:17.668Z,9.06
2023-05-08T19:51:44.458Z,9.01
2023-05-08T19:54:11.199Z,8.95
2023-05-08T19:56:37.851Z,8.89
2023-05-08T19:59:04.481Z,8.83
2023-05-08T20:01:31.233Z,8.79
2023-05-08T20:04:00.628Z,8.76
2023-05-08T20:06:27.616Z,8.73
2023-05-08T20:08:54.304Z,8.69
2023-05-08T20:11:21.099Z,8.66
2023-05-08T20:13:47.803Z,8.60
2023-05-08T20:16:14.546Z,8.52
2023-05-08T20:18:41.260Z,8.43
2023-05-08T20:21:07.926Z,8.36
2023-05-08T20:23:34.642Z,8.27
2023-05-08T20:26:01.290Z,8.22
2023-05-08T20:28:28.115Z,8.17
2023-05-08T20:30:54.876Z,8.11
2023-05-08T20:33:21.802Z,8.06
2023-05-08T20:35:48.460Z,7.99
2023-05-08T20:38:16.132Z,7.92
2023-05-08T20:40:42.875Z,7.85
2023-05-08T20:43:10.401Z,7.78
2023-05-08T20:45:37.761Z,7.71
2023-05-08T20:48:04.950Z,7.66
2023-05-08T20:50:31.655Z,7.60
2023-05-08T20:52:58.347Z,7.53
2023-05-08T20:55:25.002Z,7.48
2023-05-08T20:57:51.664Z,7.41
2023-05-08T21:00:18.756Z,7.34
2023-05-08T21:02:45.530Z,7.26
2023-05-08T21:05:12.508Z,7.18
2023-05-08T21:07:39.540Z,7.12
2023-05-08T21:10:06.973Z,7.05
2023-05-08T21:12:33.686Z,6.98
2023-05-08T21:15:00.692Z,6.91
2023-05-08T21:17:27.406Z,6.84
2023-05-08T21:19:54.324Z,6.78
2023-05-08T21:22:21.208Z,6.71
2023-05-08T21:24:47.982Z,6.64
2023-05-08T21:27:14.595Z,6.58
2023-05-08T21:29:41.557Z,6.55
2023-05-08T21:32:10.129Z,6.50
2023-05-08T21:34:37.116Z,6.44
2023-05-08T21:37:03.957Z,6.37
2023-05-08T21:39:30.626Z,6.32
2023-05-08T21:41:57.278Z,6.28
2023-05-08T21:44:23.928Z,6.25
2023-05-08T21:46:50.632Z,6.21
2023-05-08T21:49:17.484Z,6.17
2023-05-08T21:51:45.672Z,6.12
2023-05-08T21:54:12.359Z,6.03
2023-05-08T21:56:39.247Z,5.94
2023-05-08T21:59:07.313Z,5.86
2023-05-08T22:01:34.020Z,5.82
2023-05-08T22:04:00.836Z,5.79
2023-05-08T22:06:27.719Z,5.76
2023-05-08T22:08:54.350Z,5.72
2023-05-08T22:11:22.314Z,5.66
2023-05-08T22:13:48.979Z,5.57
2023-05-08T22:16:15.692Z,5.47
2023-05-08T22:18:42.493Z,5.38
2023-05-08T22:21:09.152Z,5.29
2023-05-08T22:23:35.805Z,5.22
2023-05-08T22:26:03.217Z,5.13
2023-05-08T22:28:29.984Z,5.02
2023-05-08T22:30:56.636Z,4.92
2023-05-08T22:33:23.363Z,4.86
2023-05-08T22:35:50.132Z,4.83
2023-05-08T22:38:16.858Z,4.78
2023-05-08T22:40:43.657Z,4.72
2023-05-08T22:43:10.322Z,4.63
2023-05-08T22:45:37.297Z,4.57
2023-05-08T22:48:04.433Z,4.52
2023-05-08T22:50:31.360Z,4.44
2023-05-08T22:52:58.110Z,4.36
2023-05-08T22:55:24.873Z,4.34
2023-05-08T22:57:51.544Z,4.31
2023-05-08T23:00:18.536Z,4.29
2023-05-08T23:02:45.385Z,4.27
2023-05-08T23:05:12.565Z,4.23
2023-05-08T23:07:39.415Z,4.19
2023-05-08T23:10:07.064Z,4.10
2023-05-08T23:12:33.808Z,4.03
2023-05-08T23:15:00.450Z,4.01
2023-05-08T23:17:27.248Z,4.02
2023-05-08T23:19:53.942Z,3.99
2023-05-08T23:22:20.630Z,3.93
2023-05-08T23:24:48.209Z,3.87
2023-05-08T23:27:14.911Z,3.83
2023-05-08T23:29:41.537Z,3.79
2023-05-08T23:32:08.160Z,3.76
2023-05-08T23:34:34.826Z,3.75
2023-05-08T23:37:01.920Z,3.76
2023-05-08T23:39:28.693Z,3.76
2023-05-08T23:41:55.376Z,3.76
2023-05-08T23:44:21.999Z,3.73
2023-05-08T23:46:48.939Z,3.73
2023-05-08T23:49:16.006Z,3.74
2023-05-08T23:51:42.649Z,3.74
2023-05-08T23:54:09.312Z,3.75
2023-05-08T23:56:36.040Z,3.73
2023-05-08T23:59:02.669Z,3.68
